Hornsby, Illinois
Current Conditions -  °F | °C
As of 5:15 PM on Friday 31 Oct 2014 (Local Time) from K3LF Reporting Station
Scattered Clouds Scattered Clouds  
Wind Chill: 32°   Ceiling: Unl
Heat Index: 42°   Visibility: 10mi
Dew Point: 20°   Wind: 23mph
Humidity: 42%   Direction: 340°NNW
Pressure: 30.28"   Gusts: 32mph
Location:  39.1865°N, 89.679°W
Report Text: K3LF 312215Z AUTO 34020G28KT 10SM SCT055 06/M07 A3028 RMK AO2 T00551067
Loading
Personal Weather Stations






























Interactive Weather Map
Tropical Storm Tracking
New forecast layout! Learn more

10-Day Weather Forecast

Advertisements
Track Severe Weather on mobile